ADDS METAR Data INFO
IDs: Format: Raw Decoded Include TAF

Data at: 1356 UTC 17 Dec 2017

PAHP 171300Z AUTO 33018KT 2SM -SN BR BKN006 BKN010 M02/M02 A2952 RMK AO2 P0000 FZRANO
PAHP 171256Z AUTO 34021KT 2SM -SN BR SCT006 SCT010 M02/M02 A2951 RMK AO2 SLP030 P0000 T10171017 FZRANO
PAHP 171254Z AUTO 34022KT 2SM -SN BR SCT006 SCT010 M02/M02 A2951 RMK AO2 P0000 FZRANO
PAHP 171238Z AUTO 33015KT 2 1/2SM -SN BR FEW014 SCT020 BKN034 M01/M02 A2951 RMK AO2 P0000 FZRANO
PAHP 171232Z AUTO 33016KT 3SM -SN BR FEW014 BKN022 BKN034 M01/M02 A2950 RMK AO2 P0000 FZRANO
PAHP 171225Z AUTO 33016KT 2 1/2SM -SN BR SCT014 BKN022 OVC034 M01/M02 A2950 RMK AO2 P0000 FZRANO
PAHP 171210Z AUTO 33016KT 2 1/2SM -SN BR SCT022 BKN034 M01/M02 A2949 RMK AO2 P0000 FZRANO
PAHP 171156Z AUTO 33014KT 4SM -SN BR CLR M01/M02 A2948 RMK AO2 SLP019 P0000 60001 70001 T10111017 11011 21017 51038 FZRANO
PAHP 171110Z AUTO 32010KT 6SM -SN BR SCT006 M02/M02 A2945 RMK AO2 P0000 FZRANO
PAHP 171056Z AUTO 33009KT 6SM -SN BR BKN008 M01/M02 A2944 RMK AO2 CIG 005V010 SLP007 P0001 T10111017 FZRANO
PAHP 171054Z AUTO 33009KT 3SM -SN BR BKN008 M01/M02 A2944 RMK AO2 CIG 005V010 P0000 FZRANO
PAHP 171013Z AUTO 31007KT 2SM -SN BR FEW010 BKN020 M01/M02 A2942 RMK AO2 P0000 FZRANO
PAHP 170956Z AUTO 29005KT 5SM -SN BR OVC018 M02/M02 A2940 RMK AO2 UPB44E54SNE37B54 SLP994 P0000 T10171017 FZRANO
PAHP 170940Z AUTO 30003KT 9SM FEW014 BKN018 M01/M02 A2939 RMK AO2 SNE37 P0000 FZRANO
PAHP 170856Z AUTO 34004KT 3SM -SN BR OVC014 M01/M02 A2937 RMK AO2 SLP981 P0000 60000 T10111017 400001017 51029 FZRANO
PAHP 170840Z AUTO 01004KT 4SM -SN BR SCT003 OVC012 M01/M02 A2936 RMK AO2 P0000 FZRANO
PAHP 170821Z AUTO 03005KT 4SM -SN BR BKN003 OVC008 M01/M01 A2934 RMK AO2 P0000 FZRANO
PAHP 170807Z AUTO 04006KT 2SM -SN BR BKN003 OVC006 M01/M01 A2933 RMK AO2 P0000 FZRANO
PAHP 170756Z AUTO 05006KT 4SM -SN BR OVC006 M01/M01 A2933 RMK AO2 CIG 003V009 SLP967 P0000 T10111011 FZRANO
PAHP 170753Z AUTO 04006KT 4SM -SN BR OVC006 M01/M01 A2932 RMK AO2 CIG 003V009 P0000 FZRANO
PAHP 170726Z AUTO 05005KT 4SM -SN BR OVC004 M01/M01 A2930 RMK AO2 CIG 003V008 P0000 FZRANO
PAHP 170656Z AUTO 06007KT 7SM -SN BKN009 OVC016 M01/M01 A2928 RMK AO2 SLP952 P0000 T10111011 FZRANO
PAHP 170604Z AUTO 06007KT 9SM SCT007 BKN014 M01/M02 A2925 RMK AO2 SNE01 P0000 FZRANO
PAHP 170556Z AUTO 06007KT 9SM -SN BKN007 BKN012 M01/M01 A2924 RMK AO2 UPE20SNB46 SLP939 P0000 60000 T10111011 10000 21011 53027 FZRANO
PAHP 170549Z AUTO 06008KT 10SM -SN BKN007 M01/M01 A2924 RMK AO2 UPE20SNB46 P0000 FZRANO
PAHP 170513Z AUTO 05006KT 10SM UP OVC005 M01/M01 A2921 RMK AO2 CIG 003V007 P0000 FZRANO
PAHP 170456Z AUTO 03007KT 3SM UP BR BKN003 OVC010 M01/M01 A2920 RMK AO2 SNB37E51 CIG 003V007 SLP926 P0000 T10061011 FZRANO
PAHP 170356Z AUTO 05009KT 9SM UP OVC003 00/M01 A2916 RMK AO2 SLP913 P0000 T00001006 FZRANO
PAHP 170353Z AUTO 05008KT 9SM UP OVC003 00/M01 A2916 RMK AO2 P0000 FZRANO
PAHP 170334Z AUTO 04008KT 1SM UP BR OVC003 00/M01 A2915 RMK AO2 P0000 FZRANO
PAHP 170316Z AUTO 05007KT 3/4SM UP BR OVC003 00/M01 A2914 RMK AO2 P0000 FZRANO
PAHP 170256Z AUTO 04006KT 3/4SM UP BR OVC003 00/M01 A2913 RMK AO2 UPB0159 SLP900 P0000 60000 T00001006 53029 FZRANO
PAHP 170242Z AUTO 04006KT 1 1/4SM UP BR OVC003 00/M01 A2912 RMK AO2 UPB0159 P0000 FZRANO
PAHP 170237Z AUTO 04006KT 3/4SM UP BR OVC003 M01/M01 A2912 RMK AO2 UPB0159 P0000 FZRANO
PAHP 170224Z AUTO 03006KT 1/4SM UP FZFG BKN003 OVC020 M01/M01 A2911 RMK AO2 UPB0159 P0000 FZRANO
PAHP 170212Z AUTO 03008KT 1SM UP BR SCT001 OVC020 M01/M01 A2911 RMK AO2 UPB0159 P0000 FZRANO
PAHP 170210Z AUTO 03008KT 2SM UP BR SCT001 OVC020 M01/M01 A2911 RMK AO2 UPB0159 P0000 FZRANO
PAHP 170156Z AUTO 04007KT 8SM OVC022 M01/M01 A2910 RMK AO2 SLP890 T10061006 FZRANO
PAHP 170109Z AUTO 06009KT 8SM SCT002 BKN024 BKN029 M01/M01 A2908 RMK AO2 FZRANO
PAHP 170056Z AUTO 06008KT 10SM BKN024 OVC029 M01/M01 A2907 RMK AO2 SLP881 T10061011 FZRANO
PAHP 162356Z AUTO 07008KT 10SM OVC026 M01/M01 A2904 RMK AO2 SNB06E15 SLP871 P0000 60000 T10061011 11006 21017 53028 FZRANO
PAHP 162216Z AUTO 09008KT 10SM BKN022 M01/M02 A2899 RMK AO2 SNE06 P0000 FZRANO
PAHP 162156Z AUTO 08007KT 8SM -SN CLR M01/M02 A2898 RMK AO2 SLP851 P0000 T10111017 FZRANO
PAHP 162121Z AUTO 09007KT 4SM -SN BR SCT020 M01/M02 A2897 RMK AO2 P0000 FZRANO
PAHP 162056Z AUTO 10008KT 3SM -SN BR BKN018 M01/M02 A2896 RMK AO2 SLP844 P0000 60000 T10111017 53030 FZRANO
PAHP 161956Z AUTO 10010KT 7SM -SN OVC016 M01/M02 A2893 RMK AO2 SNB1857 SLP833 P0000 T10111017 FZRANO
PAHP 161919Z AUTO 10012KT 4SM -SN BR BKN016 BKN023 OVC045 M01/M02 A2891 RMK AO2 SNB1857 P0000 FZRANO
PAHP 161856Z AUTO 10012KT 10SM FEW014 SCT047 M01/M02 A2890 RMK AO2 SNE34 SLP822 P0000 T10111017 FZRANO
PAHP 161804Z AUTO 11013KT 9SM -SN FEW015 M02/M02 A2888 RMK AO2 P0000 FZRANO
PAHP 161756Z AUTO 11013KT 9SM -SN BKN015 M02/M02 A2887 RMK AO2 SLP813 P0000 60000 T10171017 11006 21017 53017 FZRANO
PAHP 161739Z AUTO 11014KT 9SM -SN SCT009 BKN015 M02/M02 A2886 RMK AO2 P0000 FZRANO
PAHP 161656Z AUTO 11016KT 9SM -SN BKN009 M02/M02 A2884 RMK AO2 UPE1557SNB05 SLP804 P0000 T10171022 FZRANO
PAHP 161556Z AUTO 10015KT 9SM UP OVC011 M01/M02 A2882 RMK AO2 UPB06E27B49SNE06B27E49 CIG 008V015 SLP797 P0000 T10111017 FZRANO
PAHP 161552Z AUTO 10014KT 9SM UP OVC011 M01/M02 A2882 RMK AO2 UPB06E27B49SNE06B27E49 P0000 FZRANO
PAHP 161538Z AUTO 10014KT 8SM -SN OVC009 M01/M02 A2882 RMK AO2 UPB06E27SNE06B27 CIG 008V014 P0000 FZRANO
PAHP 161517Z AUTO 10014KT 6SM UP BR SCT006 OVC013 M01/M02 A2881 RMK AO2 UPB06SNE06 P0000 FZRANO
PAHP 161456Z AUTO 10014KT 6SM -SN BR OVC006 M01/M02 A2880 RMK AO2 UPB21E23SNB11E21B25 SLP788 P0000 60000 T10111017 51024 FZRANO
PAHP 161414Z AUTO 10013KT 8SM -SN OVC006 M01/M01 A2879 RMK AO2 SNB11 CIG 004V007 P0000 FZRANO
PAHP 161356Z AUTO 09011KT 5SM BR OVC004 M01/M01 A2878 RMK AO2 UPB43E48SNB34E43 SLP782 P0000 T10111011 FZRANO
PAHP 161256Z AUTO 11013KT 10SM OVC004 M01/M02 A2876 RMK AO2 UPE35SNB01E10 SLP774 P0000 T10111017 FZRANO
PAHP 161233Z AUTO 11013KT 9SM UP OVC004 M01/M02 A2874 RMK AO2 SNB01E10 P0000 FZRANO
PAHP 161122Z AUTO 10017KT 8SM UP OVC006 M01/M01 A2872 RMK AO2 UPB1059SNE1059B09E18 CIG 004V008 P0000 FZRANO
PAHP 161056Z AUTO 11017KT 6SM -SN BR OVC004 M01/M01 A2871 RMK AO2 UPB30E32SNE02B20E30B32 CIG 002V007 SLP758 P0000 T10111011 FZRANO
PAHP 161007Z AUTO 10020KT 7SM OVC007 M01/M01 A2869 RMK AO2 SNE02 CIG 004V011 P0000 FZRANO
PAHP 160956Z AUTO 10020KT 4SM -SN BR BKN005 OVC009 M01/M01 A2869 RMK AO2 PK WND 09026/0926 UPE22SNB22 SLP751 P0000 T10111011 FZRANO
PAHP 160933Z AUTO 09019G26KT 3SM -SN BR OVC005 M01/M01 A2868 RMK AO2 PK WND 09026/0926 UPE22SNB22 P0000 FZRANO
PAHP 160927Z AUTO 08020KT 2 1/2SM -SN BR OVC003 M01/M01 A2867 RMK AO2 PK WND 09026/0926 VIS 1 3/4V4 UPE22SNB22 P0000 FZRANO
PAHP 160912Z AUTO 09021KT 3SM UP BR BKN003 OVC007 M01/M01 A2867 RMK AO2 PK WND 09026/0858 P0000 FZRANO
PAHP 160904Z AUTO 09022KT 1 3/4SM UP BR BKN003 OVC007 M01/M01 A2867 RMK AO2 PK WND 09026/0858 P0000 FZRANO
PAHP 160853Z AUTO 09022KT 1 3/4SM UP BR OVC006 M01/M01 A2867 RMK AO2 PK WND 08028/0818 UPB37SNE37 CIG 003V009 P0000 400061083 FZRANO
PAHP 160823Z AUTO 08022G28KT 3SM -SN BR FEW003 OVC008 00/M01 A2865 RMK AO2 PK WND 08028/0818 CIG 006V011 P0000 FZRANO
PAHP 160756Z AUTO 07021KT 2SM -SN BR BKN005 OVC010 00/00 A2865 RMK AO2 PK WND 07031/0659 RAE18B50E52UPB18E50SNB52 CIG 003V008 SLP739 P0000 T00000000 FZRANO
PAHP 160734Z AUTO 07024KT 3SM UP BR OVC005 01/00 A2866 RMK AO2 PK WND 07031/0659 RAE18UPB18 CIG 004V008 P0000 FZRANO
PAHP 160704Z AUTO 07025G31KT 3SM -RA BR OVC007 01/00 A2866 RMK AO2 PK WND 07031/0659 CIG 003V008 P0000 FZRANO
PAHP 160633Z AUTO 07024G30KT 3SM UP BR BKN007 01/00 A2866 RMK AO2 PK WND 06030/0627 RAB10E13 P0000 FZRANO
PAHP 160452Z AUTO 05024G33KT 1 1/4SM -SN BR CLR M01/M01 A2868 RMK AO2 PK WND 05034/0437 UPE10SNB10 P0000 FZRANO
PAHP 160424Z AUTO 05028G32KT 1 1/2SM -SN BR CLR M01/M01 A2869 RMK AO2 PK WND 06033/0413 UPE10SNB10 P0000 FZRANO
PAHP 160417Z AUTO 05026G33KT 2SM -SN BR CLR M01/M01 A2870 RMK AO2 PK WND 06033/0413 UPE10SNB10 P0000 FZRANO
PAHP 160356Z AUTO 05027G31KT 4SM UP BR CLR M01/M02 A2871 RMK AO2 PK WND 06031/0356 UPB46SNE46 SLP757 P0000 T10111017 FZRANO
PAHP 160346Z AUTO 05025KT 3SM UP BR CLR M01/M02 A2871 RMK AO2 PK WND 05030/0344 UPB46SNE46 P0000 FZRANO
PAHP 160334Z AUTO 05025KT 2SM -SN BR CLR M01/M02 A2872 RMK AO2 PK WND 05029/0331 P0000 FZRANO
PAHP 160306Z AUTO 05022KT 1 3/4SM -SN BR CLR M02/M02 A2873 RMK AO2 PK WND 05028/0301 VIS 1 1/2V2 1/2 P0000 FZRANO
PAHP 160256Z AUTO 05025G29KT 3SM -SN BR CLR M02/M02 A2873 RMK AO2 PK WND 04032/0213 SLP766 P0000 60000 T10171022 56036 FZRANO
PAHP 160253Z AUTO 05024KT 3SM -SN BR CLR M02/M02 A2873 RMK AO2 PK WND 04032/0213 P0000 FZRANO